Golden Island — 3EVL8 — position and weather

sailwx.info

Track history (hours):
 
Tides and Currents Weather Stations Pressure Air Temp Water Temp Dewpoint Dewpoint Depression Visibility Wind Speed Wind Dir Waves Ship Positions

Golden Island

Last reported at 2018-Jan-18 13:03 UTC. Time now 2018-Jan-23 08:05 UTC.
Position S 00°14' W 047°15'.

Length 189 m; draft 11.5 m.

Type: Ship. MMSI: 373492000.

Date/timePositionNaut miles runAvg speedWind from/ knotsBaromVisibWave heightAir tempDewpointWater temp
2018-Jan-18 13:03S 00°14' W 047°15'210.7
2018-Jan-18 12:54S 00°14' W 047°16'410.5
2018-Jan-18 12:29S 00°14' W 047°21'510.4
2018-Jan-18 11:59S 00°13' W 047°26'510.0
2018-Jan-18 11:30S 00°12' W 047°31'6 9.7
2018-Jan-18 10:56S 00°12' W 047°36'4 9.5
2018-Jan-18 10:30S 00°12' W 047°40'5 9.7
2018-Jan-18 10:00S 00°12' W 047°45'1110.1
2018-Jan-18 08:56S 00°16' W 047°55'511.1
2018-Jan-18 08:30S 00°18' W 047°59'710.7
2018-Jan-18 07:52S 00°21' W 048°06'410.9
2018-Jan-18 07:30S 00°23' W 048°09'5 9.4
2018-Jan-18 07:00S 00°26' W 048°13'1410.5
2018-Jan-18 05:41S 00°36' W 048°22'613.5
2018-Jan-18 05:16S 00°41' W 048°25'413.2
2018-Jan-18 04:59S 00°44' W 048°26'612.5
2018-Jan-18 04:30S 00°50' W 048°29'611.4
2018-Jan-18 04:00S 00°55' W 048°27'510.5
2018-Jan-18 03:31S 01°00' W 048°27'5 9.5
2018-Jan-18 03:00S 01°04' W 048°29'4 8.7
2018-Jan-18 02:30S 01°08' W 048°32'3 5.9
2018-Jan-18 02:00S 01°11' W 048°33'4 8.8
2018-Jan-18 01:31S 01°14' W 048°35'5 9.1
2018-Jan-18 01:01S 01°18' W 048°38'1010.2
2018-Jan-18 00:00S 01°27' W 048°43'011.0
2018-Jan-17 23:57S 01°27' W 048°43'  
2018-Jan-12 14:55S 01°05' W 048°30'0 0.0
2018-Jan-12 14:28S 01°05' W 048°30'0 0.3
2018-Jan-12 13:58S 01°05' W 048°30'0 0.2
2018-Jan-12 13:22S 01°05' W 048°30'0 0.1
2018-Jan-12 12:58S 01°05' W 048°30'0 0.0
2018-Jan-12 12:25S 01°05' W 048°30'0 0.5
2018-Jan-12 11:59S 01°05' W 048°30'0 0.2
2018-Jan-12 11:30S 01°05' W 048°30'2 4.6
2018-Jan-12 11:00S 01°03' W 048°29'5 9.5
2018-Jan-12 10:31S 00°59' W 048°27'611.6
2018-Jan-12 10:00S 00°54' W 048°29'612.8
2018-Jan-12 09:30S 00°47' W 048°28'2214.1
2018-Jan-12 07:58S 00°29' W 048°16'614.2
2018-Jan-12 07:30S 00°25' W 048°11'713.9
2018-Jan-12 07:00S 00°21' W 048°05'713.7
2018-Jan-12 06:30S 00°18' W 047°59'713.9
2018-Jan-12 06:01S 00°15' W 047°53'612.7
2018-Jan-12 05:30S 00°11' W 047°48'612.8
2018-Jan-12 05:00S 00°04' W 047°49'713.0
2018-Jan-12 04:30N 00°02' W 047°49'  
Track history (hours):
 
Tides and Currents Weather Stations Pressure Air Temp Water Temp Dewpoint Dewpoint Depression Visibility Wind Speed Wind Dir Waves Ship Positions

Golden Island

Last reported at 2018-Jan-18 13:03 UTC. Time now 2018-Jan-23 08:05 UTC.
Position S 00°14' W 047°15'.

Length 189 m; draft 11.5 m.

Type: Ship. MMSI: 373492000.

Date/timePositionNaut miles runAvg speedWind from/ knotsBaromVisibWave heightAir tempDewpointWater temp
2018-Jan-18 13:03S 00°14' W 047°15'210.7
2018-Jan-18 12:54S 00°14' W 047°16'410.5
2018-Jan-18 12:29S 00°14' W 047°21'510.4
2018-Jan-18 11:59S 00°13' W 047°26'510.0
2018-Jan-18 11:30S 00°12' W 047°31'6 9.7
2018-Jan-18 10:56S 00°12' W 047°36'4 9.5
2018-Jan-18 10:30S 00°12' W 047°40'5 9.7
2018-Jan-18 10:00S 00°12' W 047°45'1110.1
2018-Jan-18 08:56S 00°16' W 047°55'511.1
2018-Jan-18 08:30S 00°18' W 047°59'710.7
2018-Jan-18 07:52S 00°21' W 048°06'410.9
2018-Jan-18 07:30S 00°23' W 048°09'5 9.4
2018-Jan-18 07:00S 00°26' W 048°13'1410.5
2018-Jan-18 05:41S 00°36' W 048°22'613.5
2018-Jan-18 05:16S 00°41' W 048°25'413.2
2018-Jan-18 04:59S 00°44' W 048°26'612.5
2018-Jan-18 04:30S 00°50' W 048°29'611.4
2018-Jan-18 04:00S 00°55' W 048°27'510.5
2018-Jan-18 03:31S 01°00' W 048°27'5 9.5
2018-Jan-18 03:00S 01°04' W 048°29'4 8.7
2018-Jan-18 02:30S 01°08' W 048°32'3 5.9
2018-Jan-18 02:00S 01°11' W 048°33'4 8.8
2018-Jan-18 01:31S 01°14' W 048°35'5 9.1
2018-Jan-18 01:01S 01°18' W 048°38'1010.2
2018-Jan-18 00:00S 01°27' W 048°43'011.0
2018-Jan-17 23:57S 01°27' W 048°43'  
2018-Jan-12 14:55S 01°05' W 048°30'0 0.0
2018-Jan-12 14:28S 01°05' W 048°30'0 0.3
2018-Jan-12 13:58S 01°05' W 048°30'0 0.2
2018-Jan-12 13:22S 01°05' W 048°30'0 0.1
2018-Jan-12 12:58S 01°05' W 048°30'0 0.0
2018-Jan-12 12:25S 01°05' W 048°30'0 0.5
2018-Jan-12 11:59S 01°05' W 048°30'0 0.2
2018-Jan-12 11:30S 01°05' W 048°30'2 4.6
2018-Jan-12 11:00S 01°03' W 048°29'5 9.5
2018-Jan-12 10:31S 00°59' W 048°27'611.6
2018-Jan-12 10:00S 00°54' W 048°29'612.8
2018-Jan-12 09:30S 00°47' W 048°28'2214.1
2018-Jan-12 07:58S 00°29' W 048°16'614.2
2018-Jan-12 07:30S 00°25' W 048°11'713.9
2018-Jan-12 07:00S 00°21' W 048°05'713.7
2018-Jan-12 06:30S 00°18' W 047°59'713.9
2018-Jan-12 06:01S 00°15' W 047°53'612.7
2018-Jan-12 05:30S 00°11' W 047°48'612.8
2018-Jan-12 05:00S 00°04' W 047°49'713.0
2018-Jan-12 04:30N 00°02' W 047°49'  

Dump ship's entire track history